Terminal Aerodrome Forecast
Issued by NWS

Home | Current Version | Previous Version | Text Only | Print | Product List | Glossary On
Versions: 1 2 3 4 5 6 7 8 9 10 11 12 13 14 15 16 17 18 19 20 21 22 23 24 25 26 27 28 29 30 31 32 33 34 35 36 37 38 39 40 41 42 43 44 45 46 47 48 49 50
000
FTUS44 KHGX 031739
TAFIAH
TAF
KIAH 031739Z 0318/0424 12007KT P6SM VCSH SCT030 SCT250
     FM032200 13008KT P6SM SCT050
     FM040300 VRB03KT P6SM FEW020
     FM040900 00000KT P6SM MIFG SCT012
     FM041500 13005KT P6SM VCSH SCT035
     FM041900 15007KT P6SM VCTS SCT040CB BKN250 PROB30 0419/0421
      -TSRA BKN040CB=

USA.gov is the U.S. government's official web portal to all federal, state and local government web resources and services.